Friday, November 24, 2017, 12:15 AM GMT
Back to Local

CYHZ, Halifax International Airport

Location: , , Canada Lat: 44.883
Local Time: 12:15 AM GMT ( 0:15 GMT) Lon: -63.5
Time Zone: GMT Elev: 475 ft

Show me the last for .
Show Coded

Time T Td Feel RH Dir Speed Gust Alt SLP Vis Weather Sky Remarks
2017-11-24 00:00 30 27 23 86 270° 8 - 29.81 29.83 15 CLR None
2017-11-23 23:00 30 27 22 86 280° 9 - 29.82 29.84 15 FEW020 None
2017-11-23 22:00 32 27 24 80 280° 10 - 29.82 29.84 15 FEW260 None
2017-11-23 21:00 34 27 25 74 300° 12 - 29.80 29.82 15 FEW022 FEW260 None
2017-11-23 20:00 36 27 25 69 300° 9 18 29.77 29.79 15 FEW022 FEW260 None
2017-11-23 19:00 37 28 27 69 310° 14 20 29.75 29.76 15 FEW022 FEW260 None
2017-11-23 18:00 39 28 28 64 300° 15 24 29.74 29.75 15 FEW022 FEW250 None
2017-11-23 17:00 37 30 26 74 290° 16 24 29.74 29.75 15 SCT022 None
2017-11-23 16:00 39 32 28 75 290° 16 28 29.73 29.74 15 BKN020 None
2017-11-23 15:00 37 34 26 86 290° 15 24 29.71 29.72 15 BKN016 None
2017-11-23 14:00 37 34 24 86 290° 25 33 29.67 29.68 15 BKN015 None
2017-11-23 13:00 37 36 24 93 300° 26 33 29.62 29.64 15 OVC011 None
2017-11-23 12:00 37 36 24 93 300° 21 36 29.58 29.59 15 OVC010 Pressure rising rapidly
2017-11-23 11:43 37 36 24 93 300° 29 38 29.56 29.57 15 BKN016 Pressure rising rapidly
2017-11-23 11:00 37 36 24 93 280° 20 35 29.52 29.53 12 SCT006 OVC010 Pressure rising rapidly
2017-11-23 10:00 37 37 23 100 280° 26 43 29.45 29.46 12 -SHRA OVC010 Pressure rising rapidly
2017-11-23 09:00 41 41 29 100 280° 26 37 29.33 29.34 10 -SHRA OVC008 Pressure rising rapidly
2017-11-23 08:41 41 41 28 100 290° 25 40 29.27 29.28 10 OVC009 Pressure rising rapidly
2017-11-23 08:00 48 46 38 93 290° 37 47 29.15 29.16 2 -SHRA BR OVC006 Pressure rising rapidly
2017-11-23 07:52 54 54 - 100 280° 31 41 29.14 29.14 1 -SHRA BR OVC006 Pressure rising rapidly
2017-11-23 07:39 54 54 - 100 280° 22 29 29.11 29.12 1 -DZ BR OVC003 Wind Shift: 19 min
Pressure rising rapidly
2017-11-23 07:10 57 57 - 100 210° 16 24 29.06 29.07 1 -DZ BR OVC003 None
2017-11-23 07:00 57 57 - 100 190° 21 28 29.06 29.06 1 -RA BR OVC003 Pressure falling rapidly
2017-11-23 06:26 55 55 - 100 160° 17 26 29.12 29.12 1 -RA BR OVC003 Pressure falling rapidly
2017-11-23 06:00 54 54 - 100 110° 21 32 29.17 29.18 1 RA BR OVC004 Pressure falling rapidly
2017-11-23 05:00 55 54 - 93 150° 21 35 29.36 29.36 1 RA BR OVC004 Pressure falling rapidly
2017-11-23 04:04 54 54 - 100 150° 22 40 29.46 29.47 2 RA BR OVC003 Pressure falling rapidly
2017-11-23 04:00 54 54 - 100 150° 24 36 29.46 29.47 2 -RA BR OVC005 Pressure falling rapidly
2017-11-23 03:11 54 54 - 100 150° 17 26 29.54 29.55 1 -RA BR OVC005 Pressure falling rapidly
2017-11-23 03:00 54 54 - 100 140° 20 28 29.57 29.58 2 -RA BR BKN008 OVC019 Pressure falling rapidly
2017-11-23 02:00 55 54 - 93 160° 21 29 29.64 29.65 8 -RA OVC007 Pressure falling rapidly
2017-11-23 01:41 55 54 - 93 170° 22 32 29.68 29.69 8 -RA BKN009 OVC020 None
2017-11-23 01:34 55 54 - 93 170° 18 28 29.68 29.69 8 RA OVC006 None
2017-11-23 01:00 55 55 - 100 160° 17 31 29.70 29.71 8 -RA SCT010 OVC030 Pressure falling rapidly

Support USWX by starting your Amazon purchase here.